createdAt,value
2019-06-20T00:00:41.715Z,21.23
2019-06-20T00:03:08.679Z,21.45
2019-06-20T00:05:35.625Z,21.54
2019-06-20T00:08:03.146Z,21.56
2019-06-20T00:10:29.987Z,21.34
2019-06-20T00:13:00.241Z,21.22
2019-06-20T00:15:25.232Z,21.55
2019-06-20T00:17:52.127Z,21.60
2019-06-20T00:20:18.954Z,21.54
2019-06-20T00:22:45.667Z,21.61
2019-06-20T00:25:12.538Z,21.57
2019-06-20T00:27:39.421Z,21.25
2019-06-20T00:30:07.991Z,21.13
2019-06-20T00:32:34.777Z,21.25
2019-06-20T00:35:01.903Z,21.01
2019-06-20T00:37:28.555Z,20.95
2019-06-20T00:39:55.306Z,20.96
2019-06-20T00:42:21.983Z,20.89
2019-06-20T00:44:48.666Z,20.95
2019-06-20T00:47:15.262Z,20.93
2019-06-20T00:49:41.899Z,20.81
2019-06-20T00:52:08.471Z,20.96
2019-06-20T00:54:35.189Z,21.16
2019-06-20T00:57:01.956Z,21.27
2019-06-20T00:59:28.972Z,21.28
2019-06-20T01:01:55.525Z,21.24
2019-06-20T01:04:22.249Z,21.18
2019-06-20T01:06:52.182Z,21.25
2019-06-20T01:09:18.898Z,21.44
2019-06-20T01:11:45.659Z,21.27
2019-06-20T01:14:12.231Z,21.14
2019-06-20T01:16:39.149Z,20.85
2019-06-20T01:19:05.797Z,20.78
2019-06-20T01:21:32.529Z,20.92
2019-06-20T01:23:59.240Z,21.30
2019-06-20T01:26:25.795Z,21.20
2019-06-20T01:28:52.489Z,20.94
2019-06-20T01:31:19.058Z,20.80
2019-06-20T01:33:45.677Z,20.88
2019-06-20T01:36:12.453Z,20.69
2019-06-20T01:38:39.252Z,20.95
2019-06-20T01:41:06.557Z,20.69
2019-06-20T01:43:49.148Z,20.65
2019-06-20T01:46:02.139Z,20.84
2019-06-20T01:48:28.716Z,20.94
2019-06-20T01:50:55.293Z,20.71
2019-06-20T01:53:40.688Z,20.68
2019-06-20T01:56:07.395Z,20.61
2019-06-20T01:58:34.034Z,20.53
2019-06-20T02:01:00.667Z,20.50
2019-06-20T02:03:28.654Z,20.52
2019-06-20T02:05:55.511Z,20.75
2019-06-20T02:08:22.157Z,20.87
2019-06-20T02:10:48.911Z,20.95
2019-06-20T02:13:15.477Z,21.02
2019-06-20T02:15:42.154Z,21.14
2019-06-20T02:18:09.087Z,21.09
2019-06-20T02:20:41.382Z,21.05
2019-06-20T02:23:08.139Z,21.17
2019-06-20T02:25:35.189Z,20.97
2019-06-20T02:28:02.150Z,20.84
2019-06-20T02:30:28.906Z,21.16
2019-06-20T02:32:55.707Z,21.00
2019-06-20T02:35:22.547Z,20.85
2019-06-20T02:37:49.104Z,20.57
2019-06-20T02:40:16.128Z,20.55
2019-06-20T02:42:43.000Z,20.52
2019-06-20T02:45:09.891Z,20.52
2019-06-20T02:47:36.703Z,20.57
2019-06-20T02:50:05.678Z,20.72
2019-06-20T02:52:32.635Z,20.68
2019-06-20T02:55:57.508Z,20.59
2019-06-20T02:58:24.122Z,20.63
2019-06-20T03:00:56.863Z,20.66
2019-06-20T03:03:25.588Z,20.76
2019-06-20T03:05:52.690Z,20.79
2019-06-20T03:08:19.557Z,20.77
2019-06-20T03:10:46.363Z,20.73
2019-06-20T03:13:13.465Z,20.51
2019-06-20T03:15:40.223Z,20.22
2019-06-20T03:18:07.114Z,20.09
2019-06-20T03:20:33.771Z,20.25
2019-06-20T03:23:00.386Z,20.43
2019-06-20T03:25:28.336Z,20.20
2019-06-20T03:27:54.976Z,20.18
2019-06-20T03:30:21.967Z,20.28
2019-06-20T03:32:48.628Z,20.32
2019-06-20T03:35:16.199Z,20.19
2019-06-20T03:37:42.796Z,20.21
2019-06-20T03:40:10.102Z,20.20
2019-06-20T03:42:36.813Z,20.10
2019-06-20T03:45:06.012Z,20.17
2019-06-20T03:47:32.720Z,20.33
2019-06-20T03:49:59.330Z,20.43
2019-06-20T03:52:25.884Z,20.57
2019-06-20T03:54:52.461Z,20.58
2019-06-20T03:57:19.125Z,21.03
2019-06-20T03:59:45.796Z,21.18
2019-06-20T04:02:13.452Z,21.18
2019-06-20T04:04:43.532Z,21.33
2019-06-20T04:07:10.171Z,21.11
2019-06-20T04:09:36.920Z,21.24
2019-06-20T04:12:03.678Z,21.40
2019-06-20T04:14:30.359Z,21.34
2019-06-20T04:16:56.971Z,21.59
2019-06-20T04:19:24.647Z,21.50
2019-06-20T04:21:51.268Z,21.54
2019-06-20T04:24:18.022Z,21.52
2019-06-20T04:26:44.601Z,21.51
2019-06-20T04:29:11.235Z,21.59
2019-06-20T04:31:37.977Z,21.64
2019-06-20T04:34:04.914Z,21.76
2019-06-20T04:36:31.519Z,21.60
2019-06-20T04:38:58.101Z,21.91
2019-06-20T04:41:24.703Z,21.82
2019-06-20T04:43:51.303Z,21.79
2019-06-20T04:46:20.225Z,22.03
2019-06-20T04:48:46.806Z,22.12
2019-06-20T04:51:13.373Z,22.22
2019-06-20T04:53:40.129Z,22.29
2019-06-20T04:56:06.910Z,22.27
2019-06-20T04:58:33.540Z,22.20
2019-06-20T05:01:00.263Z,22.33
2019-06-20T05:03:26.852Z,22.43
2019-06-20T05:05:53.500Z,22.28
2019-06-20T05:08:20.136Z,22.30
2019-06-20T05:10:46.931Z,22.46
2019-06-20T05:13:13.640Z,22.44
2019-06-20T05:15:52.067Z,22.55
2019-06-20T05:18:09.289Z,22.67
2019-06-20T05:20:36.012Z,22.46
2019-06-20T05:23:03.037Z,22.74
2019-06-20T05:25:29.738Z,22.84
2019-06-20T05:27:57.137Z,23.16
2019-06-20T05:30:24.103Z,23.03
2019-06-20T05:32:50.730Z,22.69
2019-06-20T05:35:17.600Z,23.16
2019-06-20T05:37:44.184Z,23.53
2019-06-20T05:40:11.592Z,23.64
2019-06-20T05:42:38.381Z,23.76
2019-06-20T05:45:06.996Z,23.60
2019-06-20T05:47:34.234Z,23.40
2019-06-20T05:50:00.969Z,23.43
2019-06-20T05:52:27.556Z,23.57
2019-06-20T05:54:54.126Z,23.60
2019-06-20T05:57:20.742Z,23.67
2019-06-20T05:59:47.312Z,23.67
2019-06-20T06:02:14.041Z,23.64
2019-06-20T06:04:40.658Z,23.90
2019-06-20T06:07:07.372Z,23.89
2019-06-20T06:09:34.095Z,23.96
2019-06-20T06:12:00.792Z,24.08
2019-06-20T06:14:27.500Z,24.18
2019-06-20T06:16:54.147Z,23.88
2019-06-20T06:19:20.732Z,23.95
2019-06-20T06:21:47.456Z,23.91
2019-06-20T06:24:14.380Z,23.83
2019-06-20T06:26:41.057Z,23.85
2019-06-20T06:29:08.045Z,24.01
2019-06-20T06:31:34.782Z,24.20
2019-06-20T06:34:01.557Z,24.22
2019-06-20T06:36:28.360Z,24.33
2019-06-20T06:38:54.914Z,24.36
2019-06-20T06:41:21.662Z,24.29
2019-06-20T06:43:49.548Z,24.36
2019-06-20T06:46:16.342Z,24.21
2019-06-20T06:48:43.200Z,24.43
2019-06-20T06:51:10.004Z,24.35
2019-06-20T06:53:36.917Z,24.52
2019-06-20T06:56:04.030Z,24.53
2019-06-20T06:58:30.705Z,24.22
2019-06-20T07:00:57.405Z,24.32
2019-06-20T07:03:24.342Z,24.40
2019-06-20T07:05:51.537Z,24.52
2019-06-20T07:08:18.174Z,24.63
2019-06-20T07:10:44.895Z,24.77
2019-06-20T07:13:11.516Z,24.71
2019-06-20T07:15:38.461Z,24.54
2019-06-20T07:18:05.362Z,24.52
2019-06-20T07:20:32.209Z,24.67
2019-06-20T07:22:58.995Z,25.04
2019-06-20T07:25:26.298Z,25.10
2019-06-20T07:27:52.883Z,25.06
2019-06-20T07:30:20.954Z,25.14
2019-06-20T07:32:47.840Z,24.95
2019-06-20T07:35:14.894Z,25.09
2019-06-20T07:37:41.711Z,24.98
2019-06-20T07:40:09.674Z,25.19
2019-06-20T07:42:36.984Z,25.23
2019-06-20T07:45:06.985Z,25.26
2019-06-20T07:47:35.170Z,25.22
2019-06-20T07:50:07.349Z,25.33
2019-06-20T07:52:34.404Z,25.39
2019-06-20T07:55:01.318Z,25.52
2019-06-20T07:57:28.011Z,25.70
2019-06-20T07:59:54.587Z,25.93
2019-06-20T08:02:21.351Z,25.71
2019-06-20T08:04:47.935Z,25.93
2019-06-20T08:07:14.546Z,26.06
2019-06-20T08:09:45.100Z,26.25
2019-06-20T08:12:09.753Z,26.23
2019-06-20T08:14:36.931Z,26.26
2019-06-20T08:17:03.656Z,26.46
2019-06-20T08:19:30.601Z,26.42
2019-06-20T08:21:57.294Z,26.37
2019-06-20T08:24:23.981Z,26.54
2019-06-20T08:26:50.795Z,26.87
2019-06-20T08:29:21.166Z,26.46
2019-06-20T08:31:46.335Z,26.99
2019-06-20T08:34:13.403Z,27.18
2019-06-20T08:36:40.220Z,26.39
2019-06-20T08:39:09.042Z,26.37
2019-06-20T08:41:35.784Z,26.77
2019-06-20T08:44:03.944Z,27.09
2019-06-20T08:46:31.207Z,26.90
2019-06-20T08:48:59.171Z,27.00
2019-06-20T08:51:26.320Z,27.17
2019-06-20T08:53:52.932Z,27.40
2019-06-20T08:56:19.596Z,27.33
2019-06-20T08:58:46.751Z,27.37
2019-06-20T09:01:13.662Z,27.60
2019-06-20T09:03:40.215Z,27.37
2019-06-20T09:06:07.732Z,27.66
2019-06-20T09:08:34.417Z,27.39
2019-06-20T09:11:01.801Z,27.34
2019-06-20T09:13:28.595Z,27.39
2019-06-20T09:15:56.673Z,27.57
2019-06-20T09:18:23.634Z,27.61
2019-06-20T09:20:52.691Z,27.55
2019-06-20T09:23:18.957Z,27.50
2019-06-20T09:25:46.027Z,27.68
2019-06-20T09:28:12.735Z,27.60
2019-06-20T09:30:39.915Z,27.83
2019-06-20T09:33:08.215Z,27.77
2019-06-20T09:35:35.523Z,27.88
2019-06-20T09:38:03.454Z,27.79
2019-06-20T09:40:32.295Z,27.87
2019-06-20T09:42:59.096Z,27.85
2019-06-20T09:45:26.225Z,27.84
2019-06-20T09:47:53.767Z,27.86
2019-06-20T09:50:22.412Z,27.87
2019-06-20T09:52:53.144Z,27.81
2019-06-20T09:55:20.739Z,27.80
2019-06-20T09:57:49.221Z,27.73
2019-06-20T10:00:21.578Z,27.67
2019-06-20T10:02:48.889Z,27.51
2019-06-20T10:05:23.309Z,27.09
2019-06-20T10:07:52.254Z,27.36
2019-06-20T10:10:23.683Z,27.22
2019-06-20T10:12:51.663Z,27.22
2019-06-20T10:15:23.861Z,27.24
2019-06-20T10:17:51.870Z,27.04
2019-06-20T10:20:21.237Z,26.82
2019-06-20T10:22:50.981Z,27.03
2019-06-20T10:25:18.969Z,27.05
2019-06-20T10:27:46.543Z,27.21
2019-06-20T10:30:15.760Z,27.36
2019-06-20T10:32:42.658Z,27.58
2019-06-20T10:35:12.379Z,27.83
2019-06-20T10:37:39.943Z,27.83
2019-06-20T10:40:08.060Z,27.61
2019-06-20T10:42:34.878Z,27.54
2019-06-20T10:45:05.699Z,27.82
2019-06-20T10:47:35.959Z,27.56
2019-06-20T10:50:01.203Z,27.57
2019-06-20T10:52:27.842Z,27.87
2019-06-20T10:54:54.636Z,27.41
2019-06-20T10:57:21.654Z,27.83
2019-06-20T10:59:48.475Z,27.76
2019-06-20T11:02:15.140Z,27.96
2019-06-20T11:04:42.324Z,28.08
2019-06-20T11:07:10.591Z,27.89
2019-06-20T11:09:39.605Z,28.14
2019-06-20T11:12:06.560Z,27.79
2019-06-20T11:14:33.251Z,27.87
2019-06-20T11:16:59.953Z,27.93
2019-06-20T11:19:26.632Z,28.09
2019-06-20T11:21:53.225Z,27.97
2019-06-20T11:24:19.827Z,28.05
2019-06-20T11:26:47.860Z,28.45
2019-06-20T11:29:14.999Z,28.33
2019-06-20T11:31:44.679Z,28.36
2019-06-20T11:34:10.356Z,28.85
2019-06-20T11:36:38.650Z,28.87
2019-06-20T11:39:06.456Z,29.06
2019-06-20T11:41:33.331Z,28.91
2019-06-20T11:43:59.935Z,28.92
2019-06-20T11:46:26.717Z,29.02
2019-06-20T11:48:53.297Z,28.97
2019-06-20T11:51:20.020Z,28.88
2019-06-20T11:53:46.749Z,28.61
2019-06-20T11:56:13.566Z,29.03
2019-06-20T11:58:40.255Z,29.26
2019-06-20T12:01:06.839Z,29.14
2019-06-20T12:03:33.640Z,29.66
2019-06-20T12:06:00.225Z,28.77
2019-06-20T12:08:27.006Z,29.10
2019-06-20T12:10:53.601Z,29.66
2019-06-20T12:13:20.172Z,29.75
2019-06-20T12:15:46.847Z,29.74
2019-06-20T12:18:13.591Z,29.65
2019-06-20T12:20:41.176Z,29.14
2019-06-20T12:23:08.307Z,29.19
2019-06-20T12:25:35.191Z,29.34
2019-06-20T12:28:01.982Z,29.05
2019-06-20T12:30:33.913Z,29.39
2019-06-20T12:33:00.613Z,29.33
2019-06-20T12:35:27.265Z,29.40
2019-06-20T12:37:53.882Z,29.72
2019-06-20T12:40:21.184Z,29.98
2019-06-20T12:42:49.276Z,29.98
2019-06-20T12:45:16.977Z,29.66
2019-06-20T12:47:43.942Z,29.47
2019-06-20T12:50:13.007Z,29.48
2019-06-20T12:52:41.254Z,29.45
2019-06-20T12:55:11.798Z,29.99
2019-06-20T12:57:42.250Z,29.85
2019-06-20T13:00:12.058Z,30.07
2019-06-20T13:02:40.405Z,30.09
2019-06-20T13:05:09.037Z,30.05
2019-06-20T13:07:35.987Z,30.36
2019-06-20T13:10:06.779Z,30.24
2019-06-20T13:12:33.515Z,30.57
2019-06-20T13:15:00.432Z,30.65
2019-06-20T13:17:27.038Z,30.74
2019-06-20T13:19:53.963Z,30.79
2019-06-20T13:22:20.740Z,30.70
2019-06-20T13:24:47.422Z,30.81
2019-06-20T13:27:14.044Z,30.92
2019-06-20T13:29:40.862Z,30.81
2019-06-20T13:32:07.547Z,30.44
2019-06-20T13:34:34.211Z,30.67
2019-06-20T13:37:00.856Z,30.66
2019-06-20T13:39:27.546Z,31.03
2019-06-20T13:41:54.311Z,31.28
2019-06-20T13:44:21.782Z,30.98
2019-06-20T13:46:49.146Z,31.21
2019-06-20T13:49:15.889Z,31.43
2019-06-20T13:51:43.351Z,31.65
2019-06-20T13:54:10.217Z,31.34
2019-06-20T13:56:40.210Z,30.61
2019-06-20T13:59:10.045Z,30.55
2019-06-20T14:01:35.491Z,30.51
2019-06-20T14:04:02.499Z,30.77
2019-06-20T14:06:29.184Z,31.04
2019-06-20T14:08:55.929Z,30.84
2019-06-20T14:11:22.874Z,30.79
2019-06-20T14:13:52.832Z,31.32
2019-06-20T14:16:18.149Z,31.63
2019-06-20T14:18:46.409Z,32.10
2019-06-20T14:21:13.653Z,32.60
2019-06-20T14:23:40.975Z,32.29
2019-06-20T14:26:09.152Z,32.24
2019-06-20T14:28:36.005Z,32.13
2019-06-20T14:31:03.184Z,31.96
2019-06-20T14:33:31.833Z,32.20
2019-06-20T14:35:59.159Z,32.58
2019-06-20T14:38:26.023Z,32.68
2019-06-20T14:40:52.929Z,32.52
2019-06-20T14:43:19.559Z,32.45
2019-06-20T14:45:46.842Z,32.10
2019-06-20T14:48:14.079Z,32.24
2019-06-20T14:50:40.822Z,32.41
2019-06-20T14:53:07.924Z,31.92
2019-06-20T14:55:34.529Z,32.10
2019-06-20T14:58:01.209Z,31.85
2019-06-20T15:00:28.222Z,31.64
2019-06-20T15:02:58.428Z,32.00
2019-06-20T15:05:23.838Z,31.90
2019-06-20T15:07:52.228Z,31.93
2019-06-20T15:10:19.814Z,32.17
2019-06-20T15:12:48.361Z,32.04
2019-06-20T15:15:17.107Z,32.07
2019-06-20T15:17:46.502Z,32.10
2019-06-20T15:20:13.310Z,32.36
2019-06-20T15:22:41.300Z,32.37
2019-06-20T15:25:08.931Z,32.12
2019-06-20T15:27:35.922Z,32.29
2019-06-20T15:30:06.609Z,31.94
2019-06-20T15:32:33.270Z,32.28
2019-06-20T15:35:01.896Z,32.38
2019-06-20T15:37:31.881Z,32.90
2019-06-20T15:39:58.694Z,32.71
2019-06-20T15:42:25.380Z,32.38
2019-06-20T15:44:52.086Z,32.79
2019-06-20T15:47:19.048Z,31.99
2019-06-20T15:49:45.703Z,32.02
2019-06-20T15:52:12.608Z,32.34
2019-06-20T15:54:39.204Z,32.45
2019-06-20T15:57:06.071Z,32.65
2019-06-20T15:59:32.740Z,32.23
2019-06-20T16:01:59.344Z,31.18
2019-06-20T16:04:26.190Z,31.24
2019-06-20T16:06:53.060Z,31.97
2019-06-20T16:09:19.968Z,32.28
2019-06-20T16:11:46.683Z,31.80
2019-06-20T16:14:13.843Z,32.01
2019-06-20T16:16:40.457Z,32.36
2019-06-20T16:19:07.055Z,32.18
2019-06-20T16:21:33.669Z,32.24
2019-06-20T16:24:00.528Z,32.32
2019-06-20T16:26:27.123Z,31.76
2019-06-20T16:28:53.725Z,31.30
2019-06-20T16:31:26.623Z,31.09
2019-06-20T16:33:49.042Z,30.74
2019-06-20T16:36:17.264Z,30.86
2019-06-20T16:38:43.978Z,30.95
2019-06-20T16:41:10.713Z,30.95
2019-06-20T16:43:37.672Z,30.93
2019-06-20T16:46:04.902Z,30.97
2019-06-20T16:48:31.948Z,30.84
2019-06-20T16:50:58.811Z,30.84
2019-06-20T16:53:25.823Z,30.81
2019-06-20T16:55:52.445Z,30.83
2019-06-20T16:58:20.470Z,31.04
2019-06-20T17:00:47.096Z,31.09
2019-06-20T17:03:13.827Z,31.07
2019-06-20T17:05:40.723Z,30.85
2019-06-20T17:08:07.866Z,30.73
2019-06-20T17:10:34.690Z,30.73
2019-06-20T17:13:01.734Z,30.54
2019-06-20T17:15:29.443Z,30.59
2019-06-20T17:17:56.138Z,30.46
2019-06-20T17:20:23.685Z,30.24
2019-06-20T17:22:50.492Z,29.96
2019-06-20T17:25:17.786Z,30.24
2019-06-20T17:27:44.700Z,30.11
2019-06-20T17:30:15.605Z,30.16
2019-06-20T17:32:42.525Z,30.09
2019-06-20T17:35:09.501Z,30.06
2019-06-20T17:37:36.576Z,29.97
2019-06-20T17:40:07.217Z,29.87
2019-06-20T17:42:34.140Z,29.77
2019-06-20T17:45:01.016Z,29.75
2019-06-20T17:47:27.933Z,29.47
2019-06-20T17:49:54.634Z,29.33
2019-06-20T17:52:21.207Z,29.33
2019-06-20T17:54:47.950Z,29.20
2019-06-20T17:57:15.404Z,29.10
2019-06-20T17:59:42.247Z,29.09
2019-06-20T18:02:09.162Z,29.15
2019-06-20T18:04:36.226Z,29.09
2019-06-20T18:07:03.014Z,29.01
2019-06-20T18:09:29.929Z,28.98
2019-06-20T18:11:56.641Z,28.89
2019-06-20T18:14:23.748Z,28.89
2019-06-20T18:16:50.966Z,29.00
2019-06-20T18:19:17.803Z,29.07
2019-06-20T18:21:46.255Z,29.00
2019-06-20T18:24:13.579Z,28.89
2019-06-20T18:26:42.233Z,28.78
2019-06-20T18:29:09.312Z,28.73
2019-06-20T18:31:36.327Z,28.83
2019-06-20T18:34:03.293Z,28.66
2019-06-20T18:36:33.200Z,28.73
2019-06-20T18:39:00.066Z,28.72
2019-06-20T18:41:26.668Z,28.57
2019-06-20T18:43:54.211Z,28.50
2019-06-20T18:46:21.815Z,28.57
2019-06-20T18:48:48.714Z,28.44
2019-06-20T18:51:15.403Z,28.27
2019-06-20T18:53:46.224Z,28.34
2019-06-20T18:56:13.228Z,28.26
2019-06-20T18:58:39.997Z,28.05
2019-06-20T19:01:06.809Z,27.95
2019-06-20T19:03:38.457Z,27.99
2019-06-20T19:06:05.250Z,28.12
2019-06-20T19:08:32.069Z,28.19
2019-06-20T19:10:59.292Z,28.16
2019-06-20T19:13:27.178Z,28.13
2019-06-20T19:15:54.025Z,28.05
2019-06-20T19:18:23.096Z,28.11
2019-06-20T19:20:49.915Z,28.07
2019-06-20T19:23:18.303Z,27.96
2019-06-20T19:25:45.391Z,28.05
2019-06-20T19:28:12.922Z,27.94
2019-06-20T19:30:44.945Z,27.76
2019-06-20T19:33:11.894Z,27.65
2019-06-20T19:35:39.693Z,27.67
2019-06-20T19:38:07.064Z,27.58
2019-06-20T19:40:39.445Z,27.60
2019-06-20T19:43:06.262Z,27.49
2019-06-20T19:45:32.968Z,27.50
2019-06-20T19:47:59.786Z,27.47
2019-06-20T19:50:26.577Z,27.34
2019-06-20T19:52:53.572Z,27.48
2019-06-20T19:55:20.889Z,27.51
2019-06-20T19:57:47.921Z,27.45
2019-06-20T20:00:18.053Z,27.45
2019-06-20T20:02:45.290Z,27.46
2019-06-20T20:05:19.046Z,27.41
2019-06-20T20:07:41.693Z,27.30
2019-06-20T20:10:09.570Z,27.08
2019-06-20T20:12:38.292Z,26.92
2019-06-20T20:15:08.482Z,26.81
2019-06-20T20:17:35.631Z,26.70
2019-06-20T20:20:05.260Z,26.48
2019-06-20T20:22:32.114Z,26.70
2019-06-20T20:24:58.881Z,26.75
2019-06-20T20:27:25.756Z,26.79
2019-06-20T20:29:52.327Z,26.92
2019-06-20T20:32:19.020Z,26.78
2019-06-20T20:34:45.735Z,26.43
2019-06-20T20:37:12.296Z,26.59
2019-06-20T20:39:39.318Z,26.48
2019-06-20T20:42:06.104Z,26.65
2019-06-20T20:44:32.858Z,26.73
2019-06-20T20:46:59.603Z,26.62
2019-06-20T20:49:26.285Z,26.76
2019-06-20T20:51:54.051Z,26.68
2019-06-20T20:54:23.461Z,26.57
2019-06-20T20:56:50.954Z,26.63
2019-06-20T20:59:17.891Z,26.55
2019-06-20T21:01:44.546Z,26.57
2019-06-20T21:04:11.373Z,26.35
2019-06-20T21:06:38.220Z,26.05
2019-06-20T21:09:06.348Z,26.02
2019-06-20T21:11:33.909Z,25.52
2019-06-20T21:14:00.808Z,26.05
2019-06-20T21:16:27.503Z,25.98
2019-06-20T21:18:54.621Z,25.75
2019-06-20T21:21:21.417Z,25.81
2019-06-20T21:23:48.306Z,25.53
2019-06-20T21:26:15.055Z,25.42
2019-06-20T21:28:41.880Z,25.65
2019-06-20T21:31:08.832Z,25.78
2019-06-20T21:33:35.535Z,25.45
2019-06-20T21:36:08.489Z,25.34
2019-06-20T21:38:30.907Z,25.12
2019-06-20T21:40:58.788Z,25.16
2019-06-20T21:43:25.500Z,25.05
2019-06-20T21:45:52.323Z,24.85
2019-06-20T21:48:19.123Z,24.92
2019-06-20T21:50:45.920Z,24.74
2019-06-20T21:53:12.704Z,24.66
2019-06-20T21:55:40.810Z,24.74
2019-06-20T21:58:07.622Z,24.78
2019-06-20T22:00:41.233Z,24.88
2019-06-20T22:03:13.635Z,24.72
2019-06-20T22:05:42.214Z,24.84
2019-06-20T22:08:09.408Z,24.78
2019-06-20T22:10:36.285Z,24.17
2019-06-20T22:13:04.159Z,23.90
2019-06-20T22:15:32.317Z,24.35
2019-06-20T22:17:59.305Z,24.63
2019-06-20T22:20:26.533Z,24.73
2019-06-20T22:22:53.342Z,24.61
2019-06-20T22:25:20.851Z,24.77
2019-06-20T22:27:47.977Z,24.57
2019-06-20T22:30:17.914Z,24.46
2019-06-20T22:32:44.476Z,24.41
2019-06-20T22:35:11.521Z,24.27
2019-06-20T22:37:38.382Z,24.39
2019-06-20T22:40:08.065Z,24.11
2019-06-20T22:42:34.993Z,23.35
2019-06-20T22:45:07.129Z,23.01
2019-06-20T22:47:34.386Z,22.58
2019-06-20T22:50:02.773Z,22.60
2019-06-20T22:52:29.574Z,22.88
2019-06-20T22:54:56.259Z,22.37
2019-06-20T22:57:23.309Z,22.20
2019-06-20T23:00:46.393Z,22.28
2019-06-20T23:03:13.284Z,22.24
2019-06-20T23:05:41.308Z,22.25
2019-06-20T23:08:08.280Z,21.97
2019-06-20T23:10:35.006Z,21.70
2019-06-20T23:13:01.851Z,21.70
2019-06-20T23:15:28.980Z,21.65
2019-06-20T23:17:55.579Z,21.66
2019-06-20T23:20:22.828Z,21.75
2019-06-20T23:22:49.549Z,22.14
2019-06-20T23:25:16.901Z,22.06
2019-06-20T23:27:44.450Z,22.00
2019-06-20T23:30:13.753Z,22.23
2019-06-20T23:32:40.492Z,22.43
2019-06-20T23:35:07.859Z,22.28
2019-06-20T23:37:34.896Z,22.09
2019-06-20T23:40:04.620Z,21.65
2019-06-20T23:42:31.267Z,21.99
2019-06-20T23:44:57.840Z,22.37
2019-06-20T23:47:24.574Z,22.49
2019-06-20T23:49:51.203Z,22.04
2019-06-20T23:52:20.233Z,21.85
2019-06-20T23:54:47.015Z,21.85
2019-06-20T23:57:13.743Z,22.06
2019-06-20T23:59:40.567Z,22.22
